Flight Track Log - Related Links

Times and Time Zones

All times are in EDT time to prevent confusion due to time zone crossing. See the SWA1707 flight status page for this flight to view local times or setup timezone preferences in your user account.

Time Position Orientation Groundspeed Altitude Reporting Facility
EDT Latitude Longitude Course Direction KTS MPH feet Rate Location/Type
Mon 10:08:22 PM 32.8833 -96.9000 312° West 225 259 3,300  Level Dallas TRACON
Mon 10:09:22 PM 32.9333 -96.9667 312° West 225 259 6,800 3,048 Climbing Dallas TRACON
Mon 10:10:28 PM 32.9333 -97.0500 270° West 265 305 9,700 2,422 Climbing Dallas TRACON
Mon 10:12:03 PM 32.9208 -97.2131 265° West 324 373 13,300 2,439 Climbing Fort Center
Mon 10:13:03 PM 32.9086 -97.3292 263° West 340 391 16,000 2,600 Climbing Fort Center
Mon 10:14:03 PM 32.8961 -97.4506 263° West 372 428 18,500 2,100 Climbing Fort Center
Mon 10:15:03 PM 32.8833 -97.5717 263° West 372 428 20,200 2,300 Climbing Fort Center
Mon 10:16:03 PM 32.9167 -97.6831 290° West 371 427 23,100 2,450 Climbing Fort Center
Mon 10:17:03 PM 32.9600 -97.8169 291° West 389 448 25,100 1,700 Climbing Fort Center
Mon 10:18:03 PM 32.9972 -97.9286 292° West 394 453 26,500 1,567 Climbing Fort Center
Mon 10:20:03 PM 33.0814 -98.1869 291° West 418 481 29,800 1,800 Climbing Fort Center
Mon 10:22:03 PM 33.1631 -98.4358 291° West 404 465 33,700 1,900 Climbing Fort Center
Mon 10:23:03 PM 33.2058 -98.5681 291° West 404 465 35,500 1,150 Climbing Fort Center
Mon 10:24:03 PM 33.2464 -98.6853 293° West 394 453 36,000 250 Climbing Fort Center
Mon 10:25:03 PM 33.2828 -98.8025 290° West 388 447 36,000  Level Fort Center
Mon 10:26:03 PM 33.3211 -98.9200 291° West 383 441 36,000  Level Fort Center
Mon 10:27:03 PM 33.3572 -99.0350 291° West 383 441 36,000  Level Fort Center
Mon 10:28:03 PM 33.3953 -99.1550 291° West 383 441 36,000  Level Fort Center
Mon 10:30:03 PM 33.4731 -99.3931 291° West 383 441 36,000  Level Fort Center
Mon 10:31:03 PM 33.5108 -99.5161 290° West 388 447 36,000  Level Fort Center
Mon 10:32:03 PM 33.5461 -99.6367 289° West 388 447 36,000  Level Fort Center
Mon 10:33:03 PM 33.5858 -99.7597 291° West 388 447 36,000  Level Fort Center
Mon 10:34:03 PM 33.6231 -99.8781 291° West 388 447 36,000  Level Fort Center
Mon 10:35:03 PM 33.6622 -100.0064 290° West 394 453 36,000  Level Fort Center
Mon 10:36:03 PM 33.6994 -100.1272 290° West 394 453 36,000  Level Fort Center
Mon 10:37:03 PM 33.7364 -100.2483 290° West 389 448 36,000  Level Fort Center
Mon 10:38:03 PM 33.7711 -100.3669 289° West 389 448 36,000  Level Fort Center
Mon 10:39:03 PM 33.8100 -100.4858 292° West 389 448 36,000  Level Fort Center
Mon 10:40:03 PM 33.8447 -100.6044 289° West 389 448 36,000  Level Fort Center
Mon 10:41:03 PM 33.8792 -100.7208 290° West 389 448 36,000  Level Fort Center
Mon 10:42:03 PM 33.9156 -100.8372 291° West 384 442 36,000  Level Fort Center
Mon 10:43:03 PM 33.9519 -100.9539 291° West 378 435 36,000  Level Fort Center
Mon 10:44:03 PM 33.9861 -101.0756 289° West 378 435 36,000  Level Fort Center
Mon 10:45:03 PM 34.0186 -101.1797 291° West 383 441 36,000  Level Fort Center
Mon 10:46:03 PM 34.0561 -101.3142 289° West 377 434 36,000  Level Fort Center
Mon 10:47:03 PM 34.0883 -101.4208 290° West 377 434 36,000  Level Fort Center
Mon 10:48:03 PM 34.1278 -101.5506 290° West 377 434 36,000  Level Fort Center
Mon 10:49:03 PM 34.1761 -101.6633 297° West 377 434 36,000  Level Fort Center
Mon 10:50:03 PM 34.2458 -101.7597 311° West 388 447 36,000  Level Fort Center
Mon 10:51:03 PM 34.3069 -101.8608 306° West 388 447 36,000  Level Fort Center
Mon 10:53:04 PM 34.3539 -102.1053 283° West 375 432 36,000  Level Albuquerque Center
Mon 10:54:05 PM 34.3781 -102.2269 284° West 371 427 36,000  Level Albuquerque Center
Mon 10:56:08 PM 34.4258 -102.4742 283° West 376 433 36,000  Level Albuquerque Center
Mon 10:57:09 PM 34.4486 -102.5969 283° West 375 432 36,000  Level Albuquerque Center
Mon 10:58:10 PM 34.4733 -102.7211 284° West 378 435 36,000  Level Albuquerque Center
Mon 11:00:12 PM 34.5133 -102.9842 281° West 379 436 36,000 -295 Level Albuquerque Center
Mon 11:01:13 PM 34.5289 -103.1125 278° West 381 438 35,100 -984 Descending Albuquerque Center
Mon 11:02:14 PM 34.5431 -103.2333 278° West 366 421 34,000 -537 Descending Albuquerque Center
Mon 11:03:16 PM 34.5575 -103.3489 279° West 348 400 34,000  Level Albuquerque Center
Mon 11:04:17 PM 34.5719 -103.4661 279° West 348 400 34,000  Level Albuquerque Center
Mon 11:05:18 PM 34.5850 -103.5847 278° West 350 403 34,000  Level Albuquerque Center
Mon 11:06:19 PM 34.6125 -103.6997 286° West 353 406 34,000  Level Albuquerque Center
Mon 11:07:20 PM 34.6419 -103.8164 287° West 355 409 34,000  Level Albuquerque Center
Mon 11:08:21 PM 34.6706 -103.9342 286° West 358 412 34,000  Level Albuquerque Center
Mon 11:09:23 PM 34.6986 -104.0525 286° West 360 414 34,000  Level Albuquerque Center
Mon 11:10:24 PM 34.7289 -104.1722 287° West 363 418 34,000  Level Albuquerque Center
Mon 11:11:25 PM 34.7572 -104.2917 286° West 364 419 34,000  Level Albuquerque Center
Mon 11:12:26 PM 34.7856 -104.4119 286° West 364 419 34,000  Level Albuquerque Center
Mon 11:13:27 PM 34.8150 -104.5333 286° West 367 422 34,000  Level Albuquerque Center
Mon 11:14:28 PM 34.8403 -104.6561 284° West 369 425 34,000  Level Albuquerque Center
Mon 11:15:30 PM 34.8497 -104.7833 275° West 371 427 34,000  Level Albuquerque Center
Mon 11:16:31 PM 34.8628 -104.9097 277° West 372 428 34,000 -197 Level Albuquerque Center
Mon 11:17:32 PM 34.8739 -105.0375 276° West 374 430 33,600 -1,377 Descending Albuquerque Center
Mon 11:18:33 PM 34.8850 -105.1650 276° West 375 432 31,200 -2,508 Descending Albuquerque Center
Mon 11:19:34 PM 34.8972 -105.3094 276° West 367 422 28,500 -2,439 Descending Albuquerque Center
Mon 11:20:36 PM 34.9100 -105.4247 278° West 347 399 26,200 -1,707 Descending Albuquerque Center
Mon 11:21:37 PM 34.9208 -105.5367 277° West 335 386 25,000 -738 Descending Albuquerque Center
Mon 11:22:38 PM 34.9281 -105.6428 275° West 318 366 24,700 -1,243 Descending Albuquerque Center
Mon 11:23:28 PM 34.9344 -105.7414 275° West 346 398 22,700 -2,345 Descending Albuquerque Center
Mon 11:24:28 PM 34.9425 -105.8561 275° West 343 395 20,400 -2,132 Descending Albuquerque Center
Mon 11:25:29 PM 34.9511 -105.9628 276° West 321 369 18,400 -1,328 Descending Albuquerque Center
Mon 11:26:30 PM 34.9567 -106.0650 274° West 299 344 17,700 -1,339 Descending Albuquerque Center
Mon 11:27:30 PM 34.9569 -106.1739 270° West 302 348 15,700 -1,760 Descending Albuquerque Center
Mon 11:27:45 PM 34.9575 -106.1842 274° West 304 350 15,500 -1,701 Descending Albuquerque Center
Mon 11:28:37 PM 34.9592 -106.2822 271° West 295 339 13,800 -1,770 Descending Albuquerque Center
Mon 11:29:47 PM 34.9608 -106.3806 271° West 290 334 11,900 -1,722 Descending Albuquerque Center
Mon 11:30:32 PM 34.9561 -106.4697 266° West 285 328 10,500 -1,377 Descending Albuquerque Center
Mon 11:30:48 PM 34.9567 -106.4769 275° West 287 330 10,500 -492 Level Albuquerque Center
Mon 11:31:33 PM 34.9400 -106.5489 254° West 244 281 10,000 -581 Descending Albuquerque Center
Mon 11:31:50 PM 34.9350 -106.5533 216° Southwest 270 311 9,900 -1,200 Descending Albuquerque Center
Mon 11:32:33 PM 34.9008 -106.6058 232° Southwest 214 246 8,800 -1,475 Descending Albuquerque Center
Mon 11:32:51 PM 34.8997 -106.6281 267° West 238 274 8,400 -1,279 Descending Albuquerque Center
Mon 11:33:34 PM 34.9228 -106.6700 304° West 205 236 7,500 -984 Descending Albuquerque Center
Mon 11:33:52 PM 34.9344 -106.6825 319° Northwest 217 250 7,400 -700 Descending Albuquerque Center
Mon 11:34:34 PM 34.9664 -106.6872 353° North 165 190 6,800 -871 Descending Albuquerque Center
Mon 11:34:54 PM 34.9789 -106.6800 25° Northeast 187 215 6,500 -885 Descending Albuquerque Center
Mon 11:35:35 PM 35.0014 -106.6550 42° Northeast 155 178 5,900 -885 Descending Albuquerque Center
Mon 11:35:55 PM 35.0111 -106.6442 42° Northeast 168 193 5,600 -444 Descending Albuquerque Center
Mon 11:36:56 PM 35.0403 -106.6086 45° Northeast 164 189 5,300 -295 Descending Albuquerque Center

Login

Don't have an account? Register now (free) for customized features, flight alerts, and more!